createdAt,value
2023-02-05T00:01:33.082Z,103505.56
2023-02-05T00:04:00.604Z,103498.66
2023-02-05T00:06:27.928Z,103504.16
2023-02-05T00:08:57.195Z,103495.41
2023-02-05T00:11:24.578Z,103484.63
2023-02-05T00:13:51.880Z,103486.75
2023-02-05T00:16:22.468Z,103490.81
2023-02-05T00:18:49.854Z,103489.38
2023-02-05T00:21:18.437Z,103490.13
2023-02-05T00:23:45.941Z,103483.28
2023-02-05T00:26:14.280Z,103477.69
2023-02-05T00:28:42.470Z,103484.41
2023-02-05T00:31:15.977Z,103492.91
2023-02-05T00:33:44.433Z,103492.16
2023-02-05T00:36:13.125Z,103484.63
2023-02-05T00:38:41.205Z,103482.41
2023-02-05T00:41:09.257Z,103482.66
2023-02-05T00:43:38.782Z,103475.50
2023-02-05T00:46:06.673Z,103471.81
2023-02-05T00:48:34.133Z,103469.84
2023-02-05T00:51:01.412Z,103467.91
2023-02-05T00:53:28.898Z,103475.34
2023-02-05T00:55:56.353Z,103481.91
2023-02-05T00:58:24.218Z,103476.25
2023-02-05T01:00:52.176Z,103475.13
2023-02-05T01:03:20.331Z,103474.66
2023-02-05T01:05:48.497Z,103463.09
2023-02-05T01:08:15.904Z,103450.09
2023-02-05T01:10:45.718Z,103456.78
2023-02-05T01:13:14.506Z,103445.06
2023-02-05T01:15:43.595Z,103438.69
2023-02-05T01:18:11.296Z,103436.34
2023-02-05T01:20:39.731Z,103430.50
2023-02-05T01:23:07.484Z,103430.22
2023-02-05T01:25:35.203Z,103429.38
2023-02-05T01:28:03.289Z,103424.84
2023-02-05T01:30:31.144Z,103429.25
2023-02-05T01:32:59.740Z,103435.88
2023-02-05T01:35:27.245Z,103438.75
2023-02-05T01:37:54.459Z,103438.81
2023-02-05T01:40:21.872Z,103443.56
2023-02-05T01:42:49.133Z,103436.22
2023-02-05T01:45:22.867Z,103435.47
2023-02-05T01:47:56.703Z,103430.59
2023-02-05T01:50:31.405Z,103431.00
2023-02-05T01:53:00.905Z,103424.97
2023-02-05T01:55:28.538Z,103428.22
2023-02-05T01:57:56.304Z,103426.72
2023-02-05T02:00:23.581Z,103408.53
2023-02-05T02:02:51.168Z,103412.97
2023-02-05T02:05:18.978Z,103408.66
2023-02-05T02:07:46.661Z,103403.75
2023-02-05T02:10:15.709Z,103391.78
2023-02-05T02:12:44.365Z,103388.78
2023-02-05T02:15:18.274Z,103392.84
2023-02-05T02:17:48.514Z,103387.81
2023-02-05T02:20:19.762Z,103386.00
2023-02-05T02:22:56.243Z,103387.59
2023-02-05T02:25:47.735Z,103379.44
2023-02-05T02:28:29.729Z,103373.16
2023-02-05T02:31:11.421Z,103385.59
2023-02-05T02:33:52.334Z,103385.84
2023-02-05T02:36:25.459Z,103390.75
2023-02-05T02:39:03.426Z,103378.91
2023-02-05T02:41:56.757Z,103391.81
2023-02-05T02:44:45.870Z,103403.41
2023-02-05T02:47:17.237Z,103411.53
2023-02-05T02:49:56.278Z,103424.78
2023-02-05T02:52:25.498Z,103442.06
2023-02-05T02:54:56.130Z,103444.63
2023-02-05T02:57:27.210Z,103447.66
2023-02-05T02:59:56.860Z,103446.91
2023-02-05T03:02:25.463Z,103440.94
2023-02-05T03:04:56.369Z,103434.59
2023-02-05T03:07:38.089Z,103432.47
2023-02-05T03:10:08.399Z,103441.88
2023-02-05T03:12:38.211Z,103431.00
2023-02-05T03:15:07.345Z,103437.97
2023-02-05T03:17:34.985Z,103442.53
2023-02-05T03:20:13.438Z,103442.53
2023-02-05T03:22:41.306Z,103448.22
2023-02-05T03:25:09.127Z,103452.03
2023-02-05T03:27:36.737Z,103447.19
2023-02-05T03:30:06.306Z,103440.31
2023-02-05T03:33:00.099Z,103448.09
2023-02-05T03:35:43.138Z,103452.75
2023-02-05T03:38:36.642Z,103456.28
2023-02-05T03:41:10.303Z,103446.84
2023-02-05T03:43:56.498Z,103442.53
2023-02-05T03:46:43.709Z,103444.81
2023-02-05T03:49:21.472Z,103444.06
2023-02-05T03:52:04.687Z,103441.09
2023-02-05T03:54:52.304Z,103444.44
2023-02-05T03:57:30.782Z,103440.13
2023-02-05T03:59:59.264Z,103434.50
2023-02-05T04:02:29.042Z,103431.94
2023-02-05T04:04:57.380Z,103442.41
2023-02-05T04:07:25.038Z,103441.34
2023-02-05T04:09:53.426Z,103449.03
2023-02-05T04:12:20.761Z,103442.31
2023-02-05T04:14:48.801Z,103436.56
2023-02-05T04:17:16.278Z,103441.16
2023-02-05T04:19:43.561Z,103442.03
2023-02-05T04:22:12.837Z,103441.50
2023-02-05T04:24:43.614Z,103442.50
2023-02-05T04:27:11.169Z,103444.00
2023-02-05T04:29:39.418Z,103446.59
2023-02-05T04:32:07.115Z,103450.63
2023-02-05T04:34:35.232Z,103456.88
2023-02-05T04:37:03.174Z,103461.34
2023-02-05T04:39:32.293Z,103461.44
2023-02-05T04:42:02.780Z,103468.41
2023-02-05T04:44:30.072Z,103476.88
2023-02-05T04:46:57.330Z,103485.25
2023-02-05T04:49:24.859Z,103467.63
2023-02-05T04:51:52.166Z,103462.84
2023-02-05T04:54:19.525Z,103472.75
2023-02-05T04:56:46.991Z,103470.25
2023-02-05T04:59:14.354Z,103471.16
2023-02-05T05:01:41.800Z,103458.97
2023-02-05T05:04:09.475Z,103454.22
2023-02-05T05:06:36.733Z,103460.53
2023-02-05T05:09:04.047Z,103465.13
2023-02-05T05:11:31.280Z,103467.94
2023-02-05T05:13:58.552Z,103461.84
2023-02-05T05:16:25.779Z,103454.50
2023-02-05T05:18:53.131Z,103460.09
2023-02-05T05:21:20.369Z,103451.25
2023-02-05T05:23:47.606Z,103463.06
2023-02-05T05:26:14.940Z,103473.19
2023-02-05T05:28:42.175Z,103477.38
2023-02-05T05:31:13.243Z,103482.25
2023-02-05T05:33:40.517Z,103489.97
2023-02-05T05:36:08.534Z,103486.31
2023-02-05T05:38:35.838Z,103482.72
2023-02-05T05:41:22.329Z,103482.25
2023-02-05T05:43:51.187Z,103496.53
2023-02-05T05:46:41.079Z,103498.59
2023-02-05T05:49:08.391Z,103510.47
2023-02-05T05:51:35.659Z,103506.56
2023-02-05T05:54:03.044Z,103509.41
2023-02-05T05:56:30.363Z,103504.81
2023-02-05T05:58:57.628Z,103505.59
2023-02-05T06:01:24.867Z,103499.66
2023-02-05T06:03:52.077Z,103493.97
2023-02-05T06:06:19.335Z,103489.88
2023-02-05T06:08:46.663Z,103496.59
2023-02-05T06:11:13.957Z,103491.84
2023-02-05T06:13:41.902Z,103496.44
2023-02-05T06:16:09.294Z,103497.53
2023-02-05T06:18:36.557Z,103492.44
2023-02-05T06:21:05.879Z,103490.19
2023-02-05T06:23:34.093Z,103491.72
2023-02-05T06:26:01.384Z,103495.31
2023-02-05T06:28:28.646Z,103487.81
2023-02-05T06:30:56.026Z,103492.94
2023-02-05T06:33:23.440Z,103494.84
2023-02-05T06:35:50.730Z,103489.59
2023-02-05T06:38:18.136Z,103480.91
2023-02-05T06:40:45.396Z,103479.78
2023-02-05T06:43:12.735Z,103473.91
2023-02-05T06:45:40.574Z,103478.38
2023-02-05T06:48:07.901Z,103478.94
2023-02-05T06:50:35.146Z,103476.66
2023-02-05T06:53:02.543Z,103472.34
2023-02-05T06:55:29.697Z,103472.81
2023-02-05T06:57:56.950Z,103474.09
2023-02-05T07:00:24.301Z,103480.75
2023-02-05T07:02:51.728Z,103489.59
2023-02-05T07:05:18.967Z,103496.44
2023-02-05T07:07:47.229Z,103501.56
2023-02-05T07:10:15.755Z,103501.34
2023-02-05T07:12:43.034Z,103497.53
2023-02-05T07:15:10.395Z,103493.28
2023-02-05T07:17:39.418Z,103492.88
2023-02-05T07:20:07.174Z,103492.34
2023-02-05T07:22:34.376Z,103489.69
2023-02-05T07:25:04.266Z,103502.25
2023-02-05T07:27:31.893Z,103482.19
2023-02-05T07:29:59.548Z,103484.88
2023-02-05T07:32:26.787Z,103498.81
2023-02-05T07:34:54.145Z,103500.13
2023-02-05T07:37:21.674Z,103494.66
2023-02-05T07:39:48.960Z,103501.63
2023-02-05T07:42:16.282Z,103505.91
2023-02-05T07:44:50.416Z,103505.00
2023-02-05T07:47:17.968Z,103508.66
2023-02-05T07:49:45.373Z,103508.66
2023-02-05T07:52:12.676Z,103504.34
2023-02-05T07:54:40.153Z,103517.25
2023-02-05T07:57:07.594Z,103527.03
2023-02-05T07:59:34.829Z,103531.28
2023-02-05T08:02:02.246Z,103526.25
2023-02-05T08:04:29.569Z,103526.41
2023-02-05T08:06:57.168Z,103540.69
2023-02-05T08:09:24.765Z,103540.06
2023-02-05T08:11:52.112Z,103547.22
2023-02-05T08:14:19.361Z,103545.72
2023-02-05T08:16:46.616Z,103551.53
2023-02-05T08:19:15.677Z,103539.47
2023-02-05T08:21:43.740Z,103543.22
2023-02-05T08:24:11.042Z,103545.34
2023-02-05T08:26:38.400Z,103543.59
2023-02-05T08:29:05.653Z,103551.16
2023-02-05T08:31:33.026Z,103547.09
2023-02-05T08:34:00.403Z,103549.16
2023-02-05T08:36:28.243Z,103562.53
2023-02-05T08:38:55.438Z,103560.94
2023-02-05T08:41:22.905Z,103552.91
2023-02-05T08:43:51.264Z,103569.97
2023-02-05T08:46:21.849Z,103566.00
2023-02-05T08:48:49.233Z,103566.88
2023-02-05T08:51:17.760Z,103572.66
2023-02-05T08:53:45.590Z,103570.38
2023-02-05T08:56:14.084Z,103568.00
2023-02-05T08:58:41.870Z,103571.09
2023-02-05T09:01:14.258Z,103570.81
2023-02-05T09:03:41.795Z,103565.41
2023-02-05T09:06:12.586Z,103562.84
2023-02-05T09:08:40.087Z,103563.53
2023-02-05T09:11:07.893Z,103566.59
2023-02-05T09:13:35.338Z,103573.47
2023-02-05T09:16:02.826Z,103574.75
2023-02-05T09:18:30.400Z,103568.09
2023-02-05T09:20:57.823Z,103568.22
2023-02-05T09:23:25.349Z,103581.31
2023-02-05T09:25:52.694Z,103581.53
2023-02-05T09:28:19.999Z,103579.63
2023-02-05T09:30:47.524Z,103571.69
2023-02-05T09:33:14.997Z,103576.22
2023-02-05T09:35:42.349Z,103583.44
2023-02-05T09:38:13.357Z,103587.66
2023-02-05T09:40:59.300Z,103581.25
2023-02-05T09:43:53.242Z,103594.81
2023-02-05T09:46:26.219Z,103588.16
2023-02-05T09:49:04.146Z,103593.72
2023-02-05T09:51:41.532Z,103598.81
2023-02-05T09:54:16.749Z,103603.91
2023-02-05T09:56:45.007Z,103590.16
2023-02-05T09:59:32.874Z,103600.81
2023-02-05T10:02:03.829Z,103591.16
2023-02-05T10:04:32.146Z,103597.31
2023-02-05T10:07:23.734Z,103579.78
2023-02-05T10:10:20.407Z,103596.41
2023-02-05T10:13:06.783Z,103603.66
2023-02-05T10:15:52.734Z,103597.53
2023-02-05T10:18:52.671Z,103593.84
2023-02-05T10:21:38.210Z,103600.56
2023-02-05T10:24:28.874Z,103605.84
2023-02-05T10:27:01.878Z,103617.81
2023-02-05T10:29:47.528Z,103613.66
2023-02-05T10:32:25.295Z,103611.28
2023-02-05T10:35:24.338Z,103623.41
2023-02-05T10:37:53.904Z,103613.88
2023-02-05T10:40:44.048Z,103643.31
2023-02-05T10:43:18.499Z,103657.44
2023-02-05T10:45:45.714Z,103673.94
2023-02-05T10:48:50.610Z,103664.84
2023-02-05T10:51:24.734Z,103677.19
2023-02-05T10:53:52.192Z,103660.63
2023-02-05T10:56:20.150Z,103647.81
2023-02-05T10:58:54.482Z,103630.75
2023-02-05T11:01:30.325Z,103623.34
2023-02-05T11:04:07.870Z,103624.84
2023-02-05T11:06:40.916Z,103625.56
2023-02-05T11:09:27.074Z,103624.13
2023-02-05T11:11:59.911Z,103625.25
2023-02-05T11:14:32.164Z,103619.00
2023-02-05T11:17:01.789Z,103626.22
2023-02-05T11:19:29.329Z,103639.06
2023-02-05T11:21:58.880Z,103613.44
2023-02-05T11:24:28.587Z,103614.34
2023-02-05T11:27:23.813Z,103655.22
2023-02-05T11:29:51.015Z,103629.97
2023-02-05T11:32:38.428Z,103630.50
2023-02-05T11:35:20.868Z,103618.97
2023-02-05T11:38:16.126Z,103613.81
2023-02-05T11:40:51.861Z,103597.47
2023-02-05T11:43:23.830Z,103594.91
2023-02-05T11:45:52.143Z,103600.31
2023-02-05T11:48:34.613Z,103596.97
2023-02-05T11:51:03.998Z,103623.22
2023-02-05T11:53:33.104Z,103600.22
2023-02-05T11:56:10.123Z,103602.66
2023-02-05T11:58:38.425Z,103602.75
2023-02-05T12:01:29.122Z,103591.19
2023-02-05T12:04:02.138Z,103588.69
2023-02-05T12:06:45.691Z,103601.31
2023-02-05T12:09:18.053Z,103604.03
2023-02-05T12:12:03.501Z,103597.44
2023-02-05T12:14:53.014Z,103582.88
2023-02-05T12:17:41.817Z,103576.44
2023-02-05T12:20:20.047Z,103592.44
2023-02-05T12:23:06.231Z,103567.97
2023-02-05T12:25:35.978Z,103584.69
2023-02-05T12:28:32.482Z,103607.13
2023-02-05T12:31:37.568Z,103607.91
2023-02-05T12:34:14.082Z,103604.31
2023-02-05T12:36:58.364Z,103600.09
2023-02-05T12:39:58.264Z,103598.13
2023-02-05T12:42:40.490Z,103595.47
2023-02-05T12:45:30.980Z,103589.78
2023-02-05T12:48:18.343Z,103590.91
2023-02-05T12:50:45.500Z,103576.19
2023-02-05T12:53:18.687Z,103568.97
2023-02-05T12:56:25.616Z,103567.09
2023-02-05T12:59:10.287Z,103560.88
2023-02-05T13:01:47.232Z,103554.63
2023-02-05T13:04:21.966Z,103557.97
2023-02-05T13:06:55.520Z,103549.09
2023-02-05T13:09:31.744Z,103553.03
2023-02-05T13:12:05.074Z,103572.09
2023-02-05T13:14:39.129Z,103578.75
2023-02-05T13:17:12.317Z,103561.81
2023-02-05T13:19:47.215Z,103556.09
2023-02-05T13:22:56.674Z,103545.31
2023-02-05T13:25:40.260Z,103561.94
2023-02-05T13:28:41.747Z,103547.22
2023-02-05T13:31:25.825Z,103548.38
2023-02-05T13:33:55.900Z,103540.16
2023-02-05T13:36:27.307Z,103548.25
2023-02-05T13:39:11.042Z,103550.84
2023-02-05T13:42:05.971Z,103545.72
2023-02-05T13:44:39.045Z,103550.66
2023-02-05T13:47:34.216Z,103552.94
2023-02-05T13:50:39.486Z,103552.59
2023-02-05T13:53:18.740Z,103557.34
2023-02-05T13:56:04.030Z,103542.22
2023-02-05T13:58:37.233Z,103557.19
2023-02-05T14:01:17.479Z,103535.84
2023-02-05T14:04:05.214Z,103561.97
2023-02-05T14:06:35.431Z,103556.47
2023-02-05T14:09:18.283Z,103563.06
2023-02-05T14:11:55.794Z,103549.66
2023-02-05T14:14:35.003Z,103528.09
2023-02-05T14:17:28.081Z,103535.06
2023-02-05T14:19:58.383Z,103552.78
2023-02-05T14:22:38.191Z,103565.56
2023-02-05T14:25:42.720Z,103548.25
2023-02-05T14:28:15.823Z,103550.47
2023-02-05T14:30:58.627Z,103549.50
2023-02-05T14:33:35.623Z,103545.94
2023-02-05T14:36:22.309Z,103541.53
2023-02-05T14:39:04.905Z,103549.47
2023-02-05T14:41:41.915Z,103541.38
2023-02-05T14:44:12.289Z,103545.53
2023-02-05T14:47:04.574Z,103535.22
2023-02-05T14:49:39.383Z,103531.88
2023-02-05T14:52:17.798Z,103532.91
2023-02-05T14:54:48.386Z,103529.03
2023-02-05T14:57:19.335Z,103526.75
2023-02-05T14:59:59.798Z,103523.53
2023-02-05T15:02:55.285Z,103525.34
2023-02-05T15:05:31.274Z,103530.09
2023-02-05T15:08:10.625Z,103506.81
2023-02-05T15:10:55.793Z,103518.81
2023-02-05T15:13:24.584Z,103530.22
2023-02-05T15:16:18.793Z,103506.09
2023-02-05T15:18:53.180Z,103507.50
2023-02-05T15:21:25.426Z,103521.28
2023-02-05T15:24:03.150Z,103518.38
2023-02-05T15:26:55.560Z,103516.66
2023-02-05T15:29:27.837Z,103524.66
2023-02-05T15:31:58.194Z,103517.84
2023-02-05T15:34:39.423Z,103519.00
2023-02-05T15:37:17.819Z,103524.03
2023-02-05T15:39:48.201Z,103534.63
2023-02-05T15:42:26.744Z,103547.13
2023-02-05T15:44:54.364Z,103547.69
2023-02-05T15:47:23.662Z,103550.50
2023-02-05T15:50:00.850Z,103557.47
2023-02-05T15:52:30.226Z,103538.91
2023-02-05T15:55:00.738Z,103534.59
2023-02-05T15:57:30.487Z,103536.31
2023-02-05T16:00:00.562Z,103538.00
2023-02-05T16:02:28.820Z,103538.09
2023-02-05T16:05:01.477Z,103536.38
2023-02-05T16:07:35.440Z,103530.75
2023-02-05T16:10:20.551Z,103542.91
2023-02-05T16:13:01.314Z,103519.00
2023-02-05T16:15:45.261Z,103515.28
2023-02-05T16:18:42.029Z,103528.53
2023-02-05T16:21:25.257Z,103525.50
2023-02-05T16:24:11.484Z,103524.38
2023-02-05T16:26:47.090Z,103536.59
2023-02-05T16:29:29.671Z,103523.75
2023-02-05T16:32:03.705Z,103531.53
2023-02-05T16:34:31.690Z,103537.13
2023-02-05T16:37:02.635Z,103525.84
2023-02-05T16:39:38.642Z,103535.63
2023-02-05T16:42:08.067Z,103533.09
2023-02-05T16:44:37.872Z,103538.56
2023-02-05T16:47:16.218Z,103535.22
2023-02-05T16:49:45.444Z,103543.38
2023-02-05T16:52:31.676Z,103537.69
2023-02-05T16:55:00.480Z,103561.53
2023-02-05T16:57:38.905Z,103564.19
2023-02-05T17:00:18.467Z,103573.22
2023-02-05T17:02:46.176Z,103550.84
2023-02-05T17:05:28.079Z,103560.94
2023-02-05T17:08:08.941Z,103567.19
2023-02-05T17:10:51.097Z,103571.53
2023-02-05T17:13:41.225Z,103566.41
2023-02-05T17:16:21.127Z,103570.06
2023-02-05T17:19:02.186Z,103576.44
2023-02-05T17:21:34.474Z,103575.28
2023-02-05T17:24:02.936Z,103581.47
2023-02-05T17:26:33.523Z,103573.63
2023-02-05T17:29:04.694Z,103567.31
2023-02-05T17:31:37.531Z,103568.50
2023-02-05T17:34:05.349Z,103566.44
2023-02-05T17:36:32.714Z,103569.19
2023-02-05T17:39:00.065Z,103571.25
2023-02-05T17:41:55.443Z,103582.09
2023-02-05T17:44:22.908Z,103581.97
2023-02-05T17:46:50.282Z,103592.22
2023-02-05T17:49:17.705Z,103591.16
2023-02-05T17:51:45.478Z,103595.59
2023-02-05T17:54:18.117Z,103585.81
2023-02-05T17:56:46.763Z,103590.56
2023-02-05T17:59:15.772Z,103592.31
2023-02-05T18:01:43.107Z,103596.41
2023-02-05T18:04:10.424Z,103593.06
2023-02-05T18:06:38.225Z,103612.88
2023-02-05T18:09:05.977Z,103610.19
2023-02-05T18:11:33.680Z,103594.53
2023-02-05T18:14:02.066Z,103593.88
2023-02-05T18:16:29.404Z,103600.66
2023-02-05T18:18:56.738Z,103598.44
2023-02-05T18:21:24.694Z,103590.19
2023-02-05T18:23:53.426Z,103591.31
2023-02-05T18:26:21.008Z,103599.28
2023-02-05T18:28:48.284Z,103586.31
2023-02-05T18:31:15.858Z,103597.06
2023-02-05T18:33:43.658Z,103599.00
2023-02-05T18:36:14.376Z,103593.66
2023-02-05T18:38:44.365Z,103607.38
2023-02-05T18:41:17.351Z,103604.19
2023-02-05T18:43:45.029Z,103608.78
2023-02-05T18:46:14.956Z,103623.75
2023-02-05T18:48:42.205Z,103624.69
2023-02-05T18:51:11.190Z,103622.09
2023-02-05T18:53:43.154Z,103615.66
2023-02-05T18:56:16.283Z,103645.69
2023-02-05T18:58:44.508Z,103647.72
2023-02-05T19:01:17.121Z,103650.59
2023-02-05T19:03:44.834Z,103645.63
2023-02-05T19:06:15.775Z,103665.63
2023-02-05T19:08:44.200Z,103650.81
2023-02-05T19:11:16.044Z,103658.25
2023-02-05T19:13:43.327Z,103658.66
2023-02-05T19:16:13.181Z,103661.16
2023-02-05T19:18:41.550Z,103667.50
2023-02-05T19:21:11.324Z,103662.06
2023-02-05T19:23:38.728Z,103665.53
2023-02-05T19:26:08.632Z,103665.91
2023-02-05T19:28:36.659Z,103654.38
2023-02-05T19:31:09.393Z,103650.06
2023-02-05T19:33:37.334Z,103652.63
2023-02-05T19:36:06.303Z,103648.19
2023-02-05T19:38:38.629Z,103644.63
2023-02-05T19:41:12.532Z,103644.41
2023-02-05T19:43:43.271Z,103645.22
2023-02-05T19:46:10.609Z,103640.16
2023-02-05T19:48:37.810Z,103643.28
2023-02-05T19:51:07.583Z,103630.25
2023-02-05T19:53:35.711Z,103634.03
2023-02-05T19:56:25.251Z,103620.81
2023-02-05T19:58:54.629Z,103617.00
2023-02-05T20:01:23.770Z,103624.53
2023-02-05T20:03:52.775Z,103612.72
2023-02-05T20:06:21.370Z,103620.28
2023-02-05T20:08:48.803Z,103628.34
2023-02-05T20:11:17.720Z,103634.78
2023-02-05T20:13:45.533Z,103627.63
2023-02-05T20:16:18.872Z,103632.22
2023-02-05T20:18:46.717Z,103633.69
2023-02-05T20:21:16.289Z,103636.84
2023-02-05T20:23:43.550Z,103633.09
2023-02-05T20:26:11.394Z,103644.06
2023-02-05T20:29:00.115Z,103651.00
2023-02-05T20:31:35.341Z,103642.16
2023-02-05T20:34:05.035Z,103636.72
2023-02-05T20:36:33.045Z,103644.72
2023-02-05T20:39:01.861Z,103654.28
2023-02-05T20:41:29.176Z,103638.47
2023-02-05T20:43:57.655Z,103647.13
2023-02-05T20:46:25.408Z,103632.59
2023-02-05T20:48:52.662Z,103636.41
2023-02-05T20:51:22.622Z,103639.88
2023-02-05T20:53:50.372Z,103632.50
2023-02-05T20:56:19.510Z,103627.47
2023-02-05T20:58:47.255Z,103623.84
2023-02-05T21:01:22.802Z,103622.00
2023-02-05T21:03:52.459Z,103620.84
2023-02-05T21:06:21.444Z,103617.16
2023-02-05T21:08:49.848Z,103614.34
2023-02-05T21:11:18.058Z,103625.28
2023-02-05T21:13:46.730Z,103621.16
2023-02-05T21:16:15.656Z,103619.00
2023-02-05T21:18:47.398Z,103610.72
2023-02-05T21:21:18.530Z,103622.16
2023-02-05T21:23:49.032Z,103618.03
2023-02-05T21:26:22.175Z,103639.28
2023-02-05T21:28:53.033Z,103628.97
2023-02-05T21:31:21.011Z,103629.19
2023-02-05T21:33:48.537Z,103624.16
2023-02-05T21:36:17.745Z,103616.13
2023-02-05T21:38:45.144Z,103617.84
2023-02-05T21:41:17.527Z,103621.63
2023-02-05T21:43:49.601Z,103619.31
2023-02-05T21:46:17.116Z,103611.75
2023-02-05T21:48:48.302Z,103599.75
2023-02-05T21:51:16.813Z,103601.22
2023-02-05T21:53:44.573Z,103611.34
2023-02-05T21:56:16.572Z,103627.72
2023-02-05T21:58:43.797Z,103614.25
2023-02-05T22:01:20.256Z,103617.16
2023-02-05T22:03:52.640Z,103626.91
2023-02-05T22:06:21.577Z,103624.38
2023-02-05T22:08:51.505Z,103620.19
2023-02-05T22:11:20.541Z,103627.75
2023-02-05T22:13:50.115Z,103630.69
2023-02-05T22:16:21.758Z,103619.56
2023-02-05T22:18:49.503Z,103625.84
2023-02-05T22:21:24.239Z,103626.06
2023-02-05T22:23:53.449Z,103629.63
2023-02-05T22:26:24.049Z,103630.22
2023-02-05T22:28:51.904Z,103629.22
2023-02-05T22:31:20.629Z,103636.13
2023-02-05T22:33:49.500Z,103639.53
2023-02-05T22:36:20.487Z,103639.75
2023-02-05T22:38:48.856Z,103646.66
2023-02-05T22:41:19.817Z,103647.91
2023-02-05T22:43:47.221Z,103641.63
2023-02-05T22:46:20.025Z,103652.13
2023-02-05T22:48:48.818Z,103652.16
2023-02-05T22:51:18.874Z,103647.50
2023-02-05T22:53:46.152Z,103639.09
2023-02-05T22:56:13.499Z,103648.13
2023-02-05T22:58:42.920Z,103641.16
2023-02-05T23:01:17.875Z,103629.81
2023-02-05T23:03:46.453Z,103640.75
2023-02-05T23:06:16.494Z,103629.81
2023-02-05T23:08:43.968Z,103646.91
2023-02-05T23:11:13.104Z,103630.69
2023-02-05T23:13:41.619Z,103638.00
2023-02-05T23:16:12.618Z,103643.72
2023-02-05T23:18:40.994Z,103637.63
2023-02-05T23:21:10.065Z,103638.66
2023-02-05T23:23:37.447Z,103636.75
2023-02-05T23:26:09.991Z,103641.59
2023-02-05T23:28:37.322Z,103640.53
2023-02-05T23:31:05.225Z,103653.56
2023-02-05T23:33:33.292Z,103649.59
2023-02-05T23:36:00.666Z,103649.81
2023-02-05T23:38:28.458Z,103650.84
2023-02-05T23:40:56.306Z,103644.72
2023-02-05T23:43:24.075Z,103642.00
2023-02-05T23:45:52.193Z,103639.94
2023-02-05T23:48:19.760Z,103636.13
2023-02-05T23:50:52.076Z,103632.34
2023-02-05T23:53:22.616Z,103642.00
2023-02-05T23:55:51.719Z,103644.59
2023-02-05T23:58:20.185Z,103636.78
